Time;durP1;ratioP1;P1;durP2;ratioP2;P2;SDS_P1;SDS_P2;PMS_P1;PMS_P2;Temp;Humidity;BMP_temperature;BMP_pressure;BME280_temperature;BME280_humidity;BME280_pressure;Samples;Min_cycle;Max_cycle;Signal;HPM_P1;HPM_P2
2021/03/03 00:01:43;;;;;;;66.73;19.53;;;3.60;99.90;;;;;;4969984;28;20207;-72
2021/03/03 00:04:10;;;;;;;63.50;20.13;;;3.50;99.90;;;;;;4972814;28;20215;-72
2021/03/03 00:06:37;;;;;;;55.03;16.87;;;3.50;99.90;;;;;;5005903;28;20270;-73
2021/03/03 00:09:04;;;;;;;60.53;18.20;;;3.60;99.90;;;;;;4992030;28;20697;-73
2021/03/03 00:11:31;;;;;;;62.33;18.40;;;3.60;99.90;;;;;;4975662;28;20291;-72
2021/03/03 00:13:57;;;;;;;58.10;18.47;;;3.60;99.90;;;;;;4973103;28;20212;-72
2021/03/03 00:16:24;;;;;;;53.50;17.23;;;3.50;99.90;;;;;;4972495;28;20200;-72
2021/03/03 00:18:51;;;;;;;62.17;19.23;;;3.40;99.90;;;;;;4971649;28;20574;-72
2021/03/03 00:21:18;;;;;;;56.47;18.90;;;3.40;99.90;;;;;;5011718;28;20207;-73
2021/03/03 00:23:45;;;;;;;64.57;19.77;;;3.30;99.90;;;;;;5015919;28;20218;-72
2021/03/03 00:26:11;;;;;;;61.27;19.70;;;3.20;99.90;;;;;;5015299;28;20253;-73
2021/03/03 00:28:38;;;;;;;62.30;19.67;;;3.10;99.90;;;;;;5012717;28;20226;-72
2021/03/03 00:31:04;;;;;;;53.33;18.50;;;3.10;99.90;;;;;;4976241;28;20697;-73
2021/03/03 00:33:31;;;;;;;72.47;22.07;;;3.00;99.90;;;;;;4976429;28;20196;-73
2021/03/03 00:35:58;;;;;;;59.23;19.87;;;2.90;99.90;;;;;;4960977;28;20204;-73
2021/03/03 00:38:25;;;;;;;65.33;20.63;;;2.90;99.90;;;;;;4937709;29;20226;-73
2021/03/03 00:40:52;;;;;;;73.57;21.93;;;2.80;99.90;;;;;;4972512;28;20212;-73
2021/03/03 00:43:19;;;;;;;62.97;19.53;;;2.80;99.90;;;;;;4976744;28;20200;-73
2021/03/03 00:45:45;;;;;;;62.00;19.50;;;2.70;99.90;;;;;;4976231;28;20215;-73
2021/03/03 00:48:12;;;;;;;74.57;21.00;;;2.60;99.90;;;;;;4975904;28;20295;-73
2021/03/03 00:50:39;;;;;;;79.47;21.30;;;2.60;99.90;;;;;;4959862;28;20201;-73
2021/03/03 00:53:10;;;;;;;85.37;22.60;;;2.50;99.90;;;;;;4975780;28;20287;-72
2021/03/03 00:55:38;;;;;;;81.03;22.13;;;2.50;99.90;;;;;;4975971;28;20200;-72
2021/03/03 00:58:05;;;;;;;126.53;27.60;;;2.40;99.90;;;;;;4978363;28;20228;-72
2021/03/03 01:00:33;;;;;;;117.30;28.13;;;2.40;99.90;;;;;;4956480;28;20227;-73
2021/03/03 01:03:03;;;;;;;174.43;33.50;;;2.30;99.90;;;;;;4939517;28;20205;-73
2021/03/03 01:05:30;;;;;;;157.47;35.27;;;2.20;99.90;;;;;;4956148;28;20273;-72
2021/03/03 01:07:57;;;;;;;152.87;34.73;;;2.20;99.90;;;;;;4956474;29;20566;-72
2021/03/03 01:10:24;;;;;;;155.97;34.73;;;2.10;99.90;;;;;;4922469;28;20202;-72
2021/03/03 01:12:54;;;;;;;155.53;35.47;;;2.10;99.90;;;;;;4956172;29;20655;-72
2021/03/03 01:15:22;;;;;;;143.97;33.37;;;1.90;99.90;;;;;;4956138;29;20212;-72
2021/03/03 01:17:54;;;;;;;127.63;33.40;;;1.90;99.90;;;;;;4949669;28;20228;-72
2021/03/03 01:20:21;;;;;;;131.60;31.60;;;1.90;99.90;;;;;;4957864;28;20236;-72
2021/03/03 01:22:48;;;;;;;125.53;31.93;;;1.80;99.90;;;;;;4974648;28;20282;-72
2021/03/03 01:25:14;;;;;;;104.43;29.17;;;1.80;99.90;;;;;;4938772;28;20201;-72
2021/03/03 01:27:42;;;;;;;102.97;28.43;;;1.80;99.90;;;;;;4936795;29;20707;-72
2021/03/03 01:30:10;;;;;;;105.27;29.60;;;1.70;99.90;;;;;;4956251;28;20257;-72
2021/03/03 01:32:36;;;;;;;109.40;32.50;;;1.70;99.90;;;;;;4975123;28;20192;-72
2021/03/03 01:35:03;;;;;;;98.00;28.23;;;1.70;99.90;;;;;;5014007;28;20669;-72
2021/03/03 01:37:30;;;;;;;94.10;29.23;;;1.70;99.90;;;;;;5050296;28;20221;-72
2021/03/03 01:39:57;;;;;;;98.67;29.77;;;1.70;99.90;;;;;;5036032;28;20198;-72
2021/03/03 01:42:23;;;;;;;112.33;33.87;;;1.60;99.90;;;;;;5014497;28;20211;-72
2021/03/03 01:44:51;;;;;;;115.03;34.83;;;1.60;99.90;;;;;;4977225;28;20646;-72
2021/03/03 01:47:17;;;;;;;118.47;36.53;;;1.70;99.90;;;;;;4975170;28;20231;-72
2021/03/03 01:49:44;;;;;;;109.57;35.13;;;1.60;99.90;;;;;;4975061;28;20200;-72
2021/03/03 01:52:11;;;;;;;120.37;34.37;;;1.60;99.90;;;;;;4975363;28;20200;-72
2021/03/03 01:54:38;;;;;;;110.60;34.80;;;1.60;99.90;;;;;;4974835;28;20251;-73
2021/03/03 01:57:06;;;;;;;114.97;35.57;;;1.60;99.90;;;;;;4975340;28;20201;-73
2021/03/03 01:59:33;;;;;;;108.40;33.50;;;1.60;99.90;;;;;;4974877;28;20260;-72
2021/03/03 02:02:01;;;;;;;111.80;34.37;;;1.60;99.90;;;;;;4994028;28;20208;-72
2021/03/03 02:04:27;;;;;;;114.27;34.63;;;1.60;99.90;;;;;;4974653;28;20197;-72
2021/03/03 02:07:02;;;;;;;99.60;33.33;;;1.60;99.90;;;;;;4958724;28;20209;-73
2021/03/03 02:09:37;;;;;;;105.83;32.83;;;1.50;99.90;;;;;;4955348;29;20299;-72
2021/03/03 02:12:10;;;;;;;102.10;32.80;;;1.50;99.90;;;;;;4955300;28;20212;-72
2021/03/03 02:14:39;;;;;;;93.23;32.10;;;1.50;99.90;;;;;;4955968;29;20722;-72
2021/03/03 02:17:07;;;;;;;109.47;33.17;;;1.40;99.90;;;;;;4974788;28;20208;-72
2021/03/03 02:19:37;;;;;;;106.00;34.70;;;1.40;99.90;;;;;;4974762;28;20205;-72
2021/03/03 02:22:09;;;;;;;106.77;35.10;;;1.40;99.90;;;;;;4994073;28;20212;-72
2021/03/03 02:24:43;;;;;;;102.93;32.60;;;1.30;99.90;;;;;;5012465;28;20273;-73
2021/03/03 02:27:11;;;;;;;105.37;32.00;;;1.30;99.90;;;;;;4993485;28;20677;-72
2021/03/03 02:29:39;;;;;;;118.97;34.77;;;1.20;99.90;;;;;;4994376;28;20200;-72
2021/03/03 02:32:06;;;;;;;149.10;41.27;;;1.20;99.90;;;;;;4974338;28;20212;-72
2021/03/03 02:34:33;;;;;;;128.47;38.07;;;1.10;99.90;;;;;;4974634;28;20248;-73
2021/03/03 02:37:01;;;;;;;125.40;37.27;;;1.20;99.90;;;;;;4974321;28;20201;-72
2021/03/03 02:39:29;;;;;;;120.87;36.37;;;1.10;99.90;;;;;;4974005;28;20385;-73
2021/03/03 02:41:56;;;;;;;118.80;35.13;;;1.00;99.90;;;;;;4965258;28;20201;-73
2021/03/03 02:44:26;;;;;;;131.30;38.67;;;1.00;99.90;;;;;;4992798;28;20211;-73
2021/03/03 02:46:53;;;;;;;161.53;47.20;;;1.00;99.90;;;;;;4993964;28;20693;-73
2021/03/03 02:49:23;;;;;;;134.03;42.60;;;1.00;99.90;;;;;;5012927;28;20249;-72
2021/03/03 02:51:50;;;;;;;136.50;41.67;;;1.00;99.90;;;;;;4993789;28;20716;-73
2021/03/03 02:54:17;;;;;;;124.13;38.37;;;1.00;99.90;;;;;;4974312;28;20311;-73
2021/03/03 02:56:44;;;;;;;122.17;36.37;;;1.00;99.90;;;;;;4973735;28;20618;-73
2021/03/03 02:59:22;;;;;;;125.43;35.70;;;1.00;99.90;;;;;;4973733;28;20239;-73
2021/03/03 03:01:53;;;;;;;118.97;33.97;;;0.90;99.90;;;;;;4935706;29;20600;-73
2021/03/03 03:04:23;;;;;;;110.83;34.40;;;0.90;99.90;;;;;;4916361;29;20263;-73
2021/03/03 03:06:51;;;;;;;105.53;32.87;;;0.80;99.90;;;;;;4916217;29;20206;-73
2021/03/03 03:09:19;;;;;;;113.83;34.73;;;0.80;99.90;;;;;;4915957;29;20206;-72
2021/03/03 03:11:49;;;;;;;101.30;32.43;;;0.80;99.90;;;;;;4935200;29;20256;-72
2021/03/03 03:14:20;;;;;;;108.80;33.37;;;0.70;99.90;;;;;;4954678;28;20217;-72
2021/03/03 03:16:49;;;;;;;99.43;33.47;;;0.70;99.90;;;;;;4992910;28;20196;-72
2021/03/03 03:19:21;;;;;;;115.33;35.23;;;0.60;99.90;;;;;;4992654;28;20274;-73
2021/03/03 03:21:50;;;;;;;101.90;34.20;;;0.50;99.90;;;;;;4973574;28;20259;-72
2021/03/03 03:24:19;;;;;;;103.23;33.53;;;0.60;99.90;;;;;;4971928;28;20252;-72
2021/03/03 03:26:48;;;;;;;111.97;36.37;;;0.60;99.90;;;;;;4951798;29;20287;-72
2021/03/03 03:29:16;;;;;;;104.43;34.97;;;0.60;99.90;;;;;;4953677;29;20209;-72
2021/03/03 03:31:44;;;;;;;113.20;37.20;;;0.50;99.90;;;;;;4953652;29;20297;-72
2021/03/03 03:34:14;;;;;;;124.97;38.07;;;0.50;99.90;;;;;;4954304;28;20197;-72
2021/03/03 03:36:43;;;;;;;113.23;36.67;;;0.50;99.90;;;;;;4972980;28;20216;-72
2021/03/03 03:39:12;;;;;;;114.47;38.03;;;0.50;99.90;;;;;;4973035;28;20725;-72
2021/03/03 03:41:41;;;;;;;113.27;34.23;;;0.50;99.90;;;;;;4954040;29;20635;-72
2021/03/03 03:44:10;;;;;;;106.17;33.60;;;0.60;99.90;;;;;;4953911;29;20208;-72
2021/03/03 03:46:37;;;;;;;97.40;32.80;;;0.50;99.90;;;;;;4972742;28;20729;-72
2021/03/03 03:49:05;;;;;;;100.83;31.53;;;0.50;99.90;;;;;;4992445;28;20203;-72
2021/03/03 03:51:32;;;;;;;92.70;30.57;;;0.50;99.90;;;;;;4992406;28;20239;-72
2021/03/03 03:54:00;;;;;;;99.17;30.27;;;0.50;99.90;;;;;;4973313;28;20204;-72
2021/03/03 03:56:27;;;;;;;98.27;31.93;;;0.50;99.90;;;;;;4953299;28;20212;-73
2021/03/03 03:58:54;;;;;;;101.80;31.83;;;0.50;99.90;;;;;;4953639;29;20287;-72
2021/03/03 04:01:20;;;;;;;101.13;31.07;;;0.40;99.90;;;;;;4935305;29;20264;-73
2021/03/03 04:03:47;;;;;;;92.30;31.17;;;0.40;99.90;;;;;;4934340;29;20218;-73
2021/03/03 04:06:13;;;;;;;113.27;32.03;;;0.40;99.90;;;;;;4934198;29;20217;-73
2021/03/03 04:08:40;;;;;;;89.27;30.80;;;0.40;99.90;;;;;;4934255;29;20262;-73
2021/03/03 04:11:07;;;;;;;110.03;33.20;;;0.30;99.90;;;;;;4934139;29;20680;-73
2021/03/03 04:13:34;;;;;;;101.33;32.23;;;0.30;99.90;;;;;;4950850;29;20214;-73
2021/03/03 04:16:01;;;;;;;103.60;33.37;;;0.30;99.90;;;;;;4953858;28;20654;-72
2021/03/03 04:18:27;;;;;;;90.17;30.53;;;0.30;99.90;;;;;;5005254;28;20232;-72
2021/03/03 04:20:54;;;;;;;103.83;32.17;;;0.20;99.90;;;;;;5011821;28;20258;-72
2021/03/03 04:23:21;;;;;;;88.80;29.47;;;0.20;99.90;;;;;;4991709;28;20531;-73
2021/03/03 04:25:47;;;;;;;95.33;32.23;;;0.20;99.90;;;;;;4952803;28;20208;-73
2021/03/03 04:28:15;;;;;;;93.20;30.67;;;0.10;99.90;;;;;;4957105;28;20205;-73
2021/03/03 04:30:42;;;;;;;89.93;30.07;;;0.10;99.90;;;;;;4988098;28;20621;-72
2021/03/03 04:33:09;;;;;;;91.50;30.07;;;0.10;99.90;;;;;;4991867;28;20330;-72
2021/03/03 04:35:36;;;;;;;97.23;29.20;;;-0.20;99.90;;;;;;4992103;28;20281;-73
2021/03/03 04:38:02;;;;;;;93.70;29.10;;;0.00;99.90;;;;;;4971871;28;20228;-73
2021/03/03 04:40:29;;;;;;;84.57;29.90;;;0.10;99.90;;;;;;4972233;28;20205;-72
2021/03/03 04:42:56;;;;;;;93.37;30.17;;;0.00;99.90;;;;;;4972467;28;20352;-72
2021/03/03 04:45:23;;;;;;;87.37;28.93;;;0.00;99.90;;;;;;4972239;28;20599;-72
2021/03/03 04:47:50;;;;;;;85.30;29.17;;;0.00;99.90;;;;;;4937036;29;20209;-73
2021/03/03 04:50:16;;;;;;;92.33;29.60;;;0.10;99.90;;;;;;4934108;29;20206;-72
2021/03/03 04:52:43;;;;;;;99.73;29.77;;;0.00;99.90;;;;;;4933779;29;20262;-72
2021/03/03 04:55:10;;;;;;;100.90;30.23;;;0.10;99.90;;;;;;4918076;29;20217;-72
2021/03/03 04:57:37;;;;;;;97.27;30.20;;;0.10;99.90;;;;;;4952665;29;20197;-72
2021/03/03 05:00:05;;;;;;;96.37;29.97;;;0.00;99.90;;;;;;4921543;29;20262;-72
2021/03/03 05:02:33;;;;;;;99.37;31.23;;;0.00;99.90;;;;;;4921277;29;20205;-72
2021/03/03 05:04:59;;;;;;;86.00;28.53;;;0.00;99.90;;;;;;4952668;29;20402;-72
2021/03/03 05:07:26;;;;;;;90.43;29.50;;;0.00;99.90;;;;;;4972599;28;20204;-72
2021/03/03 05:09:52;;;;;;;105.27;32.13;;;0.00;99.90;;;;;;4959530;28;20205;-72
2021/03/03 05:12:19;;;;;;;86.57;30.30;;;0.00;99.90;;;;;;4975462;28;20232;-72
2021/03/03 05:14:46;;;;;;;96.13;31.77;;;0.10;99.90;;;;;;4976184;28;20211;-72
2021/03/03 05:17:14;;;;;;;92.87;30.80;;;0.10;99.90;;;;;;4976082;28;20219;-73
2021/03/03 05:19:41;;;;;;;101.93;32.00;;;0.10;99.90;;;;;;5030856;28;20222;-72
2021/03/03 05:22:08;;;;;;;92.43;30.17;;;0.10;99.90;;;;;;5034305;28;20248;-72
2021/03/03 05:24:34;;;;;;;99.30;31.40;;;0.20;99.90;;;;;;5034324;28;20202;-73
2021/03/03 05:27:01;;;;;;;107.33;32.63;;;0.20;99.90;;;;;;5033979;28;20238;-72
2021/03/03 05:29:28;;;;;;;111.23;33.03;;;0.20;99.90;;;;;;5034155;28;20209;-73
2021/03/03 05:31:54;;;;;;;101.03;35.60;;;0.20;99.90;;;;;;4975711;28;20693;-73
2021/03/03 05:34:21;;;;;;;110.27;35.10;;;0.20;99.90;;;;;;4975213;28;20204;-72
2021/03/03 05:36:48;;;;;;;111.40;38.13;;;0.20;99.90;;;;;;4955449;29;20209;-72
2021/03/03 05:39:15;;;;;;;117.83;36.17;;;0.30;99.90;;;;;;4956038;28;20297;-72
2021/03/03 05:41:42;;;;;;;122.50;37.87;;;0.30;99.90;;;;;;4955678;29;20213;-72
2021/03/03 05:44:09;;;;;;;125.93;37.67;;;0.30;99.90;;;;;;4943114;29;20656;-73
2021/03/03 05:46:38;;;;;;;110.07;35.23;;;0.30;99.90;;;;;;4956232;29;20611;-72
2021/03/03 05:49:05;;;;;;;108.23;34.90;;;0.40;99.90;;;;;;4956017;29;20228;-72
2021/03/03 05:51:33;;;;;;;115.73;37.17;;;0.40;99.90;;;;;;4988027;28;20308;-72
2021/03/03 05:54:01;;;;;;;116.87;39.73;;;0.40;99.90;;;;;;4994711;28;20314;-72
2021/03/03 05:56:27;;;;;;;124.50;37.20;;;0.50;99.90;;;;;;4955758;29;20205;-72
2021/03/03 05:58:54;;;;;;;117.90;37.90;;;0.50;99.90;;;;;;4955288;29;20225;-72
2021/03/03 06:01:22;;;;;;;124.87;38.23;;;0.60;99.90;;;;;;4955172;29;20209;-72
2021/03/03 06:03:49;;;;;;;133.40;39.83;;;0.60;99.90;;;;;;4986738;28;20586;-72
2021/03/03 06:06:16;;;;;;;123.80;38.33;;;0.70;99.90;;;;;;4994187;28;20211;-72
2021/03/03 06:08:43;;;;;;;155.10;43.20;;;0.80;99.90;;;;;;4994382;28;20199;-72
2021/03/03 06:11:10;;;;;;;159.00;43.27;;;0.80;99.90;;;;;;4994128;28;20211;-72
2021/03/03 06:13:37;;;;;;;145.27;42.60;;;0.80;99.90;;;;;;4994233;28;20210;-73
2021/03/03 06:16:04;;;;;;;157.37;44.23;;;0.90;99.90;;;;;;5011191;28;20213;-72
2021/03/03 06:18:31;;;;;;;150.00;44.70;;;0.90;99.90;;;;;;5013124;28;20609;-73
2021/03/03 06:20:58;;;;;;;162.20;46.07;;;1.00;99.90;;;;;;5013086;28;20657;-73
2021/03/03 06:23:26;;;;;;;166.50;47.03;;;1.10;99.90;;;;;;4980389;28;20208;-72
2021/03/03 06:26:12;;;;;;;171.63;48.30;;;1.30;99.90;;;;;;5013063;28;20246;-73
2021/03/03 06:28:40;;;;;;;169.30;45.70;;;1.60;99.90;;;;;;5014201;28;20207;-72
2021/03/03 06:31:26;;;;;;;178.17;51.40;;;2.00;99.90;;;;;;5013372;28;20211;-73
2021/03/03 06:33:54;;;;;;;169.37;48.63;;;2.80;99.90;;;;;;5014188;28;20265;-72
2021/03/03 06:36:22;;;;;;;181.87;53.30;;;3.70;99.90;;;;;;5013486;28;20542;-72
2021/03/03 06:38:49;;;;;;;187.93;57.13;;;4.60;99.90;;;;;;5023033;28;20227;-72
2021/03/03 06:41:17;;;;;;;176.57;55.03;;;5.60;99.90;;;;;;5030729;28;20553;-73
2021/03/03 06:43:56;;;;;;;179.87;56.90;;;6.50;99.90;;;;;;5013253;28;20570;-73
2021/03/03 06:46:23;;;;;;;174.40;57.97;;;7.40;99.90;;;;;;5013218;28;20213;-73
2021/03/03 06:48:50;;;;;;;179.87;60.83;;;8.20;99.90;;;;;;4993413;28;20204;-72
2021/03/03 06:51:21;;;;;;;189.67;64.03;;;9.00;99.90;;;;;;4993613;28;20204;-72
2021/03/03 06:53:48;;;;;;;198.87;67.40;;;9.80;99.90;;;;;;4993082;28;20211;-72
2021/03/03 06:56:30;;;;;;;199.27;70.20;;;10.50;99.90;;;;;;4993587;28;20249;-72
2021/03/03 06:59:13;;;;;;;200.50;71.37;;;11.10;99.90;;;;;;4985062;28;20233;-72
2021/03/03 07:01:40;;;;;;;203.80;74.77;;;11.90;99.90;;;;;;4973861;28;20228;-72
2021/03/03 07:04:22;;;;;;;205.43;74.67;;;12.70;99.90;;;;;;4938455;29;20610;-72
2021/03/03 07:06:49;;;;;;;195.17;75.37;;;13.60;99.90;;;;;;4935072;29;20208;-72
2021/03/03 07:09:16;;;;;;;200.67;79.27;;;14.60;99.90;;;;;;4945514;28;20211;-72
2021/03/03 07:11:43;;;;;;;219.03;85.63;;;15.40;99.90;;;;;;4973346;28;20216;-72
2021/03/03 07:14:16;;;;;;;219.20;89.13;;;16.20;99.90;;;;;;4973261;28;20212;-72
2021/03/03 07:17:09;;;;;;;221.50;90.73;;;16.90;99.90;;;;;;4973460;28;20663;-72
2021/03/03 07:19:37;;;;;;;226.70;93.27;;;17.70;99.90;;;;;;4978007;28;20681;-72
2021/03/03 07:22:06;;;;;;;210.33;87.57;;;18.40;99.90;;;;;;4992758;28;20318;-72
2021/03/03 07:24:34;;;;;;;232.47;96.40;;;19.00;97.60;;;;;;4992800;28;20638;-72
2021/03/03 07:27:04;;;;;;;233.13;97.32;;;19.60;95.10;;;;;;4953710;28;20232;-72
2021/03/03 07:29:33;;;;;;;248.00;106.45;;;20.10;92.50;;;;;;4942535;29;20293;-72
2021/03/03 07:32:00;;;;;;;256.83;112.13;;;20.80;90.40;;;;;;4945660;29;20307;-72
2021/03/03 07:34:26;;;;;;;267.27;114.85;;;21.40;85.70;;;;;;4957974;28;20212;-73
2021/03/03 07:36:55;;;;;;;267.50;117.43;;;22.00;81.00;;;;;;4973312;28;20238;-73
2021/03/03 07:39:25;;;;;;;280.35;120.80;;;22.50;76.60;;;;;;4973104;28;20279;-72
2021/03/03 07:41:52;;;;;;;295.73;124.25;;;23.00;72.90;;;;;;4973078;28;20213;-72
2021/03/03 07:44:21;;;;;;;294.05;122.88;;;23.40;70.20;;;;;;4953613;29;20264;-72
2021/03/03 07:46:50;;;;;;;302.08;124.72;;;23.80;67.90;;;;;;4934412;29;20205;-72
2021/03/03 07:49:22;;;;;;;300.90;129.73;;;24.20;65.60;;;;;;4934468;29;20216;-72
2021/03/03 07:51:49;;;;;;;281.02;126.28;;;24.50;63.40;;;;;;4953562;29;20240;-72
2021/03/03 07:54:15;;;;;;;299.05;128.27;;;24.90;61.60;;;;;;4916154;28;20201;-72
2021/03/03 07:56:43;;;;;;;301.17;131.65;;;25.20;60.00;;;;;;4972822;28;20669;-70
2021/03/03 07:59:11;;;;;;;313.52;138.85;;;25.40;58.70;;;;;;4954409;28;20229;-70
2021/03/03 08:01:38;;;;;;;322.08;141.15;;;25.20;58.10;;;;;;5009114;28;20252;-70
2021/03/03 08:04:06;;;;;;;299.52;137.82;;;24.30;57.80;;;;;;5011924;28;20214;-71
2021/03/03 08:06:36;;;;;;;288.73;131.00;;;22.80;58.20;;;;;;5011824;28;20294;-71
2021/03/03 08:09:18;;;;;;;281.15;129.30;;;21.20;59.20;;;;;;5012042;28;20624;-71
2021/03/03 08:11:46;;;;;;;260.55;119.30;;;19.60;60.30;;;;;;5011557;28;20249;-71
2021/03/03 08:14:33;;;;;;;260.50;109.00;;;18.40;61.50;;;;;;4972260;28;20251;-71
2021/03/03 08:17:01;;;;;;;246.38;105.43;;;17.20;62.60;;;;;;5014959;28;20197;-71
2021/03/03 08:19:51;;;;;;;235.40;101.43;;;16.20;63.70;;;;;;5011092;28;20261;-71
2021/03/03 08:22:18;;;;;;;238.87;99.23;;;15.30;64.40;;;;;;5016866;28;20251;-71
2021/03/03 08:24:45;;;;;;;225.07;92.97;;;14.60;65.50;;;;;;5031011;28;20202;-71
2021/03/03 08:27:37;;;;;;;232.40;95.07;;;14.00;66.40;;;;;;5030816;28;20353;-71
2021/03/03 08:30:11;;;;;;;239.77;94.20;;;13.40;67.40;;;;;;5031007;28;20198;-71
2021/03/03 08:32:38;;;;;;;223.07;87.43;;;12.90;68.40;;;;;;5031230;28;20215;-71
2021/03/03 08:35:07;;;;;;;227.43;89.87;;;12.50;69.30;;;;;;5030873;28;20246;-72
2021/03/03 08:37:35;;;;;;;200.47;82.20;;;12.20;70.40;;;;;;4990058;28;20209;-72
2021/03/03 08:40:05;;;;;;;209.13;81.33;;;11.90;71.40;;;;;;4991530;28;20683;-72
2021/03/03 08:42:38;;;;;;;186.97;76.53;;;11.60;72.10;;;;;;4993056;28;20204;-71
2021/03/03 08:45:10;;;;;;;121.83;51.77;;;11.50;73.30;;;;;;4965810;28;20211;-71
2021/03/03 08:48:01;;;;;;;102.70;42.37;;;11.30;74.20;;;;;;4982665;28;20556;-72
2021/03/03 08:50:46;;;;;;;73.17;31.63;;;11.20;75.30;;;;;;4995600;28;20246;-73
2021/03/03 08:53:32;;;;;;;49.57;22.83;;;11.20;76.00;;;;;;4996124;28;20235;-72
2021/03/03 08:56:00;;;;;;;41.87;18.40;;;11.10;76.30;;;;;;5015583;28;20201;-72
2021/03/03 08:58:51;;;;;;;35.03;15.77;;;11.10;76.70;;;;;;4975576;28;20217;-72
2021/03/03 09:01:18;;;;;;;30.00;14.43;;;11.10;77.20;;;;;;4976285;28;20299;-72
2021/03/03 09:03:49;;;;;;;28.77;13.13;;;11.10;77.30;;;;;;4995012;28;20308;-72
2021/03/03 09:06:24;;;;;;;25.43;12.33;;;11.10;77.50;;;;;;4975443;28;20208;-72
2021/03/03 09:08:59;;;;;;;25.33;11.90;;;11.10;77.70;;;;;;4967793;28;20211;-72
2021/03/03 09:11:26;;;;;;;25.27;10.97;;;11.20;78.10;;;;;;4955957;29;20293;-72
2021/03/03 09:13:56;;;;;;;26.13;10.23;;;11.20;78.30;;;;;;4936751;29;20223;-72
2021/03/03 09:16:23;;;;;;;18.53;10.10;;;11.20;78.50;;;;;;4917709;29;20228;-72
2021/03/03 09:19:06;;;;;;;18.63;9.37;;;11.30;79.20;;;;;;4917538;29;20343;-72
2021/03/03 09:21:33;;;;;;;19.10;9.40;;;11.30;78.70;;;;;;4880234;29;20205;-72
2021/03/03 09:24:14;;;;;;;18.37;7.87;;;11.40;78.70;;;;;;4861476;29;20749;-72
2021/03/03 09:26:42;;;;;;;19.20;8.27;;;11.40;78.90;;;;;;4911596;29;20304;-72
2021/03/03 09:29:24;;;;;;;18.20;7.63;;;11.40;78.90;;;;;;4936143;29;20213;-72
2021/03/03 09:31:52;;;;;;;19.17;7.97;;;11.50;79.10;;;;;;4956123;29;20221;-72
2021/03/03 09:34:18;;;;;;;18.33;7.93;;;11.50;79.10;;;;;;4936493;29;20261;-72
2021/03/03 09:36:58;;;;;;;20.07;9.13;;;11.60;79.20;;;;;;4939557;28;20212;-72
2021/03/03 09:39:25;;;;;;;19.47;9.73;;;11.70;79.00;;;;;;4930967;29;20230;-72
2021/03/03 09:42:00;;;;;;;24.50;11.10;;;11.80;78.50;;;;;;4917514;29;20257;-72
2021/03/03 09:44:27;;;;;;;21.20;9.63;;;11.80;78.30;;;;;;4912085;29;20215;-72
2021/03/03 09:46:56;;;;;;;16.30;8.30;;;11.90;78.50;;;;;;4904068;29;20542;-72
2021/03/03 09:49:24;;;;;;;19.10;8.60;;;12.00;78.50;;;;;;4949645;28;20240;-72
2021/03/03 09:51:51;;;;;;;21.27;9.40;;;12.00;78.20;;;;;;4974982;28;20223;-72
2021/03/03 09:54:30;;;;;;;19.00;8.00;;;12.10;78.20;;;;;;4955393;28;20208;-72
2021/03/03 09:57:11;;;;;;;17.93;7.33;;;12.10;78.30;;;;;;4974780;28;20201;-72
2021/03/03 09:59:40;;;;;;;19.43;8.00;;;12.20;78.40;;;;;;4975321;28;20654;-72
2021/03/03 10:02:08;;;;;;;15.70;8.03;;;12.20;79.10;;;;;;4975206;28;20205;-71
2021/03/03 10:04:40;;;;;;;16.50;8.10;;;12.30;78.20;;;;;;4910847;29;20213;-71
2021/03/03 10:07:13;;;;;;;17.77;7.80;;;12.30;77.80;;;;;;4924594;29;20206;-72
2021/03/03 10:09:42;;;;;;;17.47;8.37;;;12.40;77.70;;;;;;4941176;29;20216;-72
2021/03/03 10:12:14;;;;;;;17.83;8.57;;;12.40;77.50;;;;;;4980439;28;20563;-72
2021/03/03 10:15:02;;;;;;;14.17;7.93;;;12.50;77.10;;;;;;4994651;28;20598;-72
2021/03/03 10:17:31;;;;;;;15.67;6.83;;;12.60;76.70;;;;;;4955352;29;20330;-73
2021/03/03 10:19:57;;;;;;;18.20;8.27;;;12.60;76.40;;;;;;4955275;29;20276;-73
2021/03/03 10:22:24;;;;;;;17.20;8.37;;;12.70;75.70;;;;;;4955394;29;20311;-73
2021/03/03 10:24:59;;;;;;;15.60;6.90;;;12.80;75.10;;;;;;4935872;29;20721;-73
2021/03/03 10:27:28;;;;;;;24.00;9.43;;;12.80;74.90;;;;;;4936170;29;20237;-73
2021/03/03 10:29:55;;;;;;;14.30;6.67;;;12.90;74.40;;;;;;4974150;28;20208;-73
2021/03/03 10:32:22;;;;;;;19.60;7.13;;;13.00;74.40;;;;;;4975193;28;20212;-73
2021/03/03 10:34:51;;;;;;;17.43;7.07;;;13.10;74.30;;;;;;4974510;28;20209;-73
2021/03/03 10:37:25;;;;;;;16.30;7.20;;;13.10;74.00;;;;;;4974823;28;20337;-73
2021/03/03 10:39:53;;;;;;;21.58;10.23;;;13.20;73.60;;;;;;4953909;29;20474;-73
2021/03/03 10:42:26;;;;;;;14.63;7.90;;;13.30;72.30;;;;;;4955015;28;20649;-72
2021/03/03 10:44:53;;;;;;;15.73;7.30;;;13.30;72.40;;;;;;4916356;29;20201;-73
2021/03/03 10:47:38;;;;;;;15.90;7.20;;;13.40;72.40;;;;;;4908634;29;20211;-72
2021/03/03 10:50:07;;;;;;;11.13;5.90;;;13.50;72.40;;;;;;4954704;29;20215;-72
2021/03/03 10:52:33;;;;;;;11.93;5.90;;;13.50;72.20;;;;;;4954621;29;20203;-72
2021/03/03 10:55:00;;;;;;;15.07;6.30;;;13.60;71.60;;;;;;4960390;28;20226;-72
2021/03/03 10:57:27;;;;;;;10.47;5.67;;;13.70;71.10;;;;;;4954549;29;20610;-72
2021/03/03 11:00:02;;;;;;;11.50;6.10;;;13.80;70.40;;;;;;4951757;29;20255;-72
2021/03/03 11:02:28;;;;;;;13.20;5.73;;;13.90;70.40;;;;;;4916351;29;20209;-72
2021/03/03 11:04:55;;;;;;;11.13;5.17;;;14.00;70.30;;;;;;4938806;28;20224;-72
2021/03/03 11:07:22;;;;;;;10.27;5.40;;;14.00;69.70;;;;;;4993036;28;20226;-72
2021/03/03 11:09:50;;;;;;;7.57;5.03;;;14.00;69.00;;;;;;4991873;28;20206;-72
2021/03/03 11:12:22;;;;;;;10.50;5.37;;;14.10;68.90;;;;;;4974239;28;20366;-72
2021/03/03 11:14:50;;;;;;;11.13;5.93;;;14.10;67.80;;;;;;4990937;28;20203;-72
2021/03/03 11:17:17;;;;;;;18.20;7.47;;;14.20;67.40;;;;;;4973671;28;20283;-72
2021/03/03 11:19:44;;;;;;;11.60;5.83;;;14.20;67.20;;;;;;4992540;28;20223;-72
2021/03/03 11:22:10;;;;;;;13.27;6.20;;;14.20;66.60;;;;;;4956523;28;20209;-72
2021/03/03 11:24:37;;;;;;;12.37;5.93;;;14.30;65.70;;;;;;4971781;28;20212;-72
2021/03/03 11:27:05;;;;;;;12.73;6.30;;;14.30;65.70;;;;;;4972931;28;20235;-72
2021/03/03 11:29:32;;;;;;;10.47;5.60;;;14.40;65.00;;;;;;4973548;28;20200;-72
2021/03/03 11:31:59;;;;;;;10.13;5.33;;;14.50;64.70;;;;;;4972968;28;20200;-72
2021/03/03 11:34:26;;;;;;;10.80;5.93;;;14.50;64.30;;;;;;4973735;28;20295;-72
2021/03/03 11:36:57;;;;;;;11.30;5.90;;;14.60;63.40;;;;;;4990134;28;20226;-72
2021/03/03 11:39:24;;;;;;;11.63;5.57;;;14.70;63.30;;;;;;4992742;28;20251;-72
2021/03/03 11:41:50;;;;;;;12.43;5.90;;;14.70;62.90;;;;;;4972647;28;20212;-71
2021/03/03 11:44:17;;;;;;;13.23;5.83;;;14.70;62.30;;;;;;4973465;28;20212;-72
2021/03/03 11:46:44;;;;;;;10.97;5.67;;;14.70;61.40;;;;;;4956837;28;20198;-72
2021/03/03 11:49:12;;;;;;;11.17;5.90;;;14.80;61.10;;;;;;4989822;28;20208;-72
2021/03/03 11:51:38;;;;;;;12.50;6.23;;;14.80;60.60;;;;;;4976170;28;20208;-72
2021/03/03 11:54:05;;;;;;;14.70;6.90;;;14.90;60.20;;;;;;4934848;29;20217;-72
2021/03/03 11:56:32;;;;;;;13.67;6.73;;;14.90;59.90;;;;;;4935016;29;20703;-73
2021/03/03 11:58:59;;;;;;;12.53;6.27;;;15.00;59.70;;;;;;4951115;29;20360;-73
2021/03/03 12:01:25;;;;;;;12.33;6.50;;;15.00;59.40;;;;;;4953533;28;20217;-71
2021/03/03 12:03:52;;;;;;;12.30;6.53;;;15.10;58.60;;;;;;4986473;28;20215;-71
2021/03/03 12:06:20;;;;;;;15.60;7.70;;;15.10;58.50;;;;;;4992212;28;20669;-71
2021/03/03 12:08:46;;;;;;;15.33;7.50;;;15.20;57.90;;;;;;4992096;28;20666;-71
2021/03/03 12:11:13;;;;;;;15.27;7.63;;;15.30;57.90;;;;;;4992458;28;20659;-72
2021/03/03 12:13:39;;;;;;;14.37;7.17;;;15.30;57.60;;;;;;4991767;28;20256;-72
2021/03/03 12:16:08;;;;;;;14.80;7.20;;;15.40;57.40;;;;;;4991825;28;20208;-72
2021/03/03 12:18:35;;;;;;;12.20;6.37;;;15.40;57.40;;;;;;4991996;28;20694;-71
2021/03/03 12:21:02;;;;;;;10.43;5.53;;;15.50;57.10;;;;;;4972892;28;20204;-72
2021/03/03 12:23:29;;;;;;;8.97;4.60;;;15.50;56.40;;;;;;4972852;28;20659;-71
2021/03/03 12:25:56;;;;;;;9.27;4.63;;;15.50;55.70;;;;;;4972466;28;20213;-72
2021/03/03 12:28:23;;;;;;;10.43;4.77;;;15.60;55.30;;;;;;4972856;28;20642;-71
2021/03/03 12:30:50;;;;;;;8.00;3.83;;;15.50;54.80;;;;;;4991838;28;20231;-71
2021/03/03 12:33:18;;;;;;;9.20;4.50;;;15.50;54.30;;;;;;4991545;28;20214;-72
2021/03/03 12:35:45;;;;;;;7.23;4.10;;;15.60;52.90;;;;;;4975155;28;20233;-72
2021/03/03 12:38:12;;;;;;;8.87;4.00;;;15.60;51.90;;;;;;4971933;28;20213;-72
2021/03/03 12:40:39;;;;;;;11.13;4.23;;;15.60;51.90;;;;;;4972181;28;20205;-72